createdAt,value
2022-10-05T00:01:32.287Z,13.96
2022-10-05T00:04:15.509Z,13.95
2022-10-05T00:06:46.152Z,14.16
2022-10-05T00:09:19.271Z,14.27
2022-10-05T00:11:46.218Z,14.27
2022-10-05T00:14:17.233Z,14.18
2022-10-05T00:16:44.307Z,14.17
2022-10-05T00:19:21.478Z,14.07
2022-10-05T00:21:48.138Z,14.05
2022-10-05T00:24:18.000Z,14.13
2022-10-05T00:26:44.845Z,14.18
2022-10-05T00:29:23.314Z,13.94
2022-10-05T00:31:50.260Z,13.68
2022-10-05T00:34:17.384Z,13.32
2022-10-05T00:36:45.416Z,13.56
2022-10-05T00:39:12.196Z,13.76
2022-10-05T00:42:14.310Z,13.50
2022-10-05T00:44:46.886Z,13.60
2022-10-05T00:47:25.630Z,14.21
2022-10-05T00:50:18.209Z,13.47
2022-10-05T00:52:50.659Z,13.86
2022-10-05T00:55:38.338Z,13.92
2022-10-05T00:58:16.934Z,13.92
2022-10-05T01:01:07.921Z,13.69
2022-10-05T01:03:51.024Z,13.93
2022-10-05T01:06:32.545Z,13.77
2022-10-05T01:09:07.014Z,13.25
2022-10-05T01:11:50.766Z,13.14
2022-10-05T01:14:27.804Z,13.16
2022-10-05T01:17:12.998Z,12.97
2022-10-05T01:20:01.571Z,12.85
2022-10-05T01:22:59.037Z,13.28
2022-10-05T01:25:56.674Z,12.99
2022-10-05T01:28:28.073Z,12.86
2022-10-05T01:31:15.662Z,13.05
2022-10-05T01:34:11.435Z,13.22
2022-10-05T01:36:47.335Z,12.87
2022-10-05T01:39:27.655Z,12.81
2022-10-05T01:42:09.080Z,12.78
2022-10-05T01:45:10.817Z,12.82
2022-10-05T01:47:44.677Z,12.81
2022-10-05T01:50:29.103Z,12.94
2022-10-05T01:53:10.159Z,13.19
2022-10-05T01:55:51.588Z,13.17
2022-10-05T01:58:43.329Z,13.29
2022-10-05T02:01:16.864Z,13.34
2022-10-05T02:03:57.079Z,13.27
2022-10-05T02:06:26.548Z,12.92
2022-10-05T02:09:01.396Z,12.77
2022-10-05T02:11:28.008Z,12.92
2022-10-05T02:14:01.700Z,12.90
2022-10-05T02:16:39.631Z,12.85
2022-10-05T02:19:06.168Z,12.69
2022-10-05T02:21:34.511Z,12.53
2022-10-05T02:24:18.465Z,12.57
2022-10-05T02:26:46.862Z,12.52
2022-10-05T02:29:18.415Z,12.62
2022-10-05T02:31:50.651Z,12.49
2022-10-05T02:34:35.814Z,12.50
2022-10-05T02:37:11.297Z,12.14
2022-10-05T02:39:56.973Z,12.45
2022-10-05T02:42:32.696Z,12.70
2022-10-05T02:45:17.753Z,12.51
2022-10-05T02:47:54.527Z,12.47
2022-10-05T02:50:42.056Z,12.56
2022-10-05T02:53:24.577Z,12.48
2022-10-05T02:55:51.052Z,12.41
2022-10-05T02:58:37.697Z,12.61
2022-10-05T03:01:35.815Z,12.64
2022-10-05T03:04:17.417Z,13.08
2022-10-05T03:06:58.726Z,12.83
2022-10-05T03:09:31.168Z,12.97
2022-10-05T03:12:16.289Z,13.01
2022-10-05T03:15:02.767Z,13.17
2022-10-05T03:17:39.675Z,13.15
2022-10-05T03:20:17.326Z,13.24
2022-10-05T03:22:55.184Z,13.03
2022-10-05T03:25:59.525Z,12.96
2022-10-05T03:28:26.190Z,12.89
2022-10-05T03:31:15.587Z,13.00
2022-10-05T03:34:08.286Z,12.93
2022-10-05T03:36:47.474Z,12.61
2022-10-05T03:39:19.223Z,12.81
2022-10-05T03:42:14.375Z,13.05
2022-10-05T03:44:43.891Z,13.17
2022-10-05T03:47:36.073Z,13.02
2022-10-05T03:50:12.057Z,12.80
2022-10-05T03:52:42.572Z,12.89
2022-10-05T03:55:35.448Z,12.69
2022-10-05T03:58:10.753Z,12.78
2022-10-05T04:00:40.492Z,12.40
2022-10-05T04:03:17.962Z,12.62
2022-10-05T04:05:59.415Z,12.55
2022-10-05T04:08:47.789Z,12.81
2022-10-05T04:11:21.342Z,12.99
2022-10-05T04:13:54.259Z,12.85
2022-10-05T04:16:28.378Z,12.90
2022-10-05T04:19:02.231Z,12.91
2022-10-05T04:21:34.562Z,13.06
2022-10-05T04:24:09.506Z,13.08
2022-10-05T04:26:50.794Z,13.00
2022-10-05T04:29:40.986Z,12.62
2022-10-05T04:32:25.660Z,12.85
2022-10-05T04:35:04.263Z,12.87
2022-10-05T04:38:08.367Z,12.74
2022-10-05T04:41:13.352Z,12.74
2022-10-05T04:43:53.877Z,12.42
2022-10-05T04:46:23.371Z,12.48
2022-10-05T04:49:05.115Z,12.34
2022-10-05T04:51:54.732Z,12.41
2022-10-05T04:54:33.201Z,12.52
2022-10-05T04:57:03.368Z,12.51
2022-10-05T04:59:35.867Z,12.27
2022-10-05T05:02:10.506Z,12.36
2022-10-05T05:04:58.902Z,12.47
2022-10-05T05:07:44.684Z,12.64
2022-10-05T05:10:40.346Z,12.36
2022-10-05T05:13:09.818Z,12.24
2022-10-05T05:15:53.976Z,11.90
2022-10-05T05:18:49.115Z,12.14
2022-10-05T05:21:44.628Z,11.94
2022-10-05T05:24:21.492Z,12.11
2022-10-05T05:26:58.600Z,12.06
2022-10-05T05:29:53.468Z,11.63
2022-10-05T05:32:32.093Z,11.89
2022-10-05T05:35:19.953Z,11.78
2022-10-05T05:38:06.693Z,11.94
2022-10-05T05:40:50.814Z,11.93
2022-10-05T05:43:27.224Z,11.72
2022-10-05T05:46:00.581Z,11.53
2022-10-05T05:48:46.751Z,11.65
2022-10-05T05:51:29.107Z,11.80
2022-10-05T05:54:15.869Z,11.71
2022-10-05T05:56:52.463Z,11.74
2022-10-05T05:59:26.050Z,12.10
2022-10-05T06:01:58.352Z,12.23
2022-10-05T06:04:35.757Z,12.27
2022-10-05T06:07:05.047Z,12.14
2022-10-05T06:09:41.734Z,12.13
2022-10-05T06:12:19.896Z,12.50
2022-10-05T06:14:51.775Z,12.20
2022-10-05T06:17:35.172Z,12.45
2022-10-05T06:20:07.991Z,12.41
2022-10-05T06:22:38.891Z,12.58
2022-10-05T06:25:15.086Z,12.67
2022-10-05T06:28:03.327Z,12.76
2022-10-05T06:30:48.685Z,12.78
2022-10-05T06:33:28.972Z,12.66
2022-10-05T06:36:14.125Z,12.76
2022-10-05T06:39:02.704Z,12.69
2022-10-05T06:42:01.397Z,12.98
2022-10-05T06:44:43.386Z,13.15
2022-10-05T06:47:27.866Z,13.03
2022-10-05T06:50:14.854Z,13.19
2022-10-05T06:53:02.446Z,13.16
2022-10-05T06:55:35.092Z,13.15
2022-10-05T06:58:20.915Z,13.17
2022-10-05T07:00:54.112Z,13.19
2022-10-05T07:03:26.637Z,13.45
2022-10-05T07:06:02.251Z,13.63
2022-10-05T07:08:47.308Z,13.62
2022-10-05T07:11:14.032Z,13.92
2022-10-05T07:13:48.610Z,13.92
2022-10-05T07:16:55.428Z,14.00
2022-10-05T07:19:37.705Z,13.71
2022-10-05T07:22:22.803Z,13.91
2022-10-05T07:24:59.262Z,13.86
2022-10-05T07:27:30.549Z,13.83
2022-10-05T07:30:26.107Z,14.23
2022-10-05T07:33:15.624Z,14.27
2022-10-05T07:36:08.887Z,13.99
2022-10-05T07:38:49.157Z,14.27
2022-10-05T07:41:32.060Z,14.51
2022-10-05T07:44:02.582Z,14.53
2022-10-05T07:46:46.806Z,14.61
2022-10-05T07:49:32.159Z,14.79
2022-10-05T07:52:02.919Z,14.88
2022-10-05T07:54:47.608Z,14.91
2022-10-05T07:57:46.364Z,14.91
2022-10-05T08:00:20.520Z,14.98
2022-10-05T08:02:56.632Z,15.14
2022-10-05T08:05:27.552Z,15.14
2022-10-05T08:08:14.306Z,15.27
2022-10-05T08:10:53.108Z,15.33
2022-10-05T08:13:42.424Z,15.43
2022-10-05T08:16:12.908Z,15.45
2022-10-05T08:18:54.372Z,15.44
2022-10-05T08:21:39.886Z,15.54
2022-10-05T08:24:15.593Z,15.62
2022-10-05T08:27:23.775Z,15.65
2022-10-05T08:30:13.583Z,15.82
2022-10-05T08:32:59.113Z,15.99
2022-10-05T08:35:40.326Z,16.06
2022-10-05T08:38:23.961Z,16.09
2022-10-05T08:41:05.909Z,16.20
2022-10-05T08:43:47.898Z,16.23
2022-10-05T08:46:26.249Z,16.39
2022-10-05T08:49:35.134Z,16.35
2022-10-05T08:52:31.605Z,16.53
2022-10-05T08:54:58.250Z,16.60
2022-10-05T08:57:49.102Z,16.66
2022-10-05T09:00:18.829Z,16.72
2022-10-05T09:03:04.119Z,16.89
2022-10-05T09:06:02.282Z,16.95
2022-10-05T09:09:06.839Z,17.04
2022-10-05T09:12:01.266Z,17.10
2022-10-05T09:14:39.397Z,17.18
2022-10-05T09:17:25.347Z,17.30
2022-10-05T09:20:30.431Z,17.35
2022-10-05T09:23:04.858Z,17.51
2022-10-05T09:25:52.150Z,17.69
2022-10-05T09:28:25.084Z,17.81
2022-10-05T09:31:38.144Z,17.79
2022-10-05T09:34:35.268Z,17.74
2022-10-05T09:37:40.641Z,17.96
2022-10-05T09:40:25.801Z,18.02
2022-10-05T09:42:55.461Z,18.16
2022-10-05T09:45:31.417Z,18.27
2022-10-05T09:48:28.894Z,18.45
2022-10-05T09:51:23.408Z,18.40
2022-10-05T09:54:20.670Z,18.44
2022-10-05T09:56:56.212Z,18.54
2022-10-05T09:59:47.423Z,18.54
2022-10-05T10:02:34.021Z,18.60
2022-10-05T10:05:06.836Z,18.96
2022-10-05T10:07:58.458Z,18.84
2022-10-05T10:10:48.217Z,18.99
2022-10-05T10:13:30.059Z,19.03
2022-10-05T10:16:05.759Z,19.13
2022-10-05T10:19:06.167Z,19.22
2022-10-05T10:22:06.862Z,19.52
2022-10-05T10:25:01.440Z,19.53
2022-10-05T10:27:51.613Z,19.37
2022-10-05T10:30:28.442Z,19.85
2022-10-05T10:33:01.268Z,19.86
2022-10-05T10:35:34.859Z,19.84
2022-10-05T10:38:31.037Z,19.93
2022-10-05T10:41:12.876Z,20.08
2022-10-05T10:44:17.490Z,20.18
2022-10-05T10:47:05.764Z,20.57
2022-10-05T10:50:08.557Z,20.22
2022-10-05T10:52:44.199Z,20.45
2022-10-05T10:55:16.412Z,20.50
2022-10-05T10:57:57.316Z,20.91
2022-10-05T11:00:47.656Z,20.89
2022-10-05T11:03:35.227Z,21.01
2022-10-05T11:06:26.464Z,20.95
2022-10-05T11:09:17.182Z,21.29
2022-10-05T11:12:11.358Z,21.18
2022-10-05T11:15:15.456Z,20.73
2022-10-05T11:18:04.699Z,20.95
2022-10-05T11:20:34.106Z,20.99
2022-10-05T11:23:06.360Z,21.05
2022-10-05T11:25:59.119Z,21.37
2022-10-05T11:28:35.749Z,21.08
2022-10-05T11:31:13.186Z,21.12
2022-10-05T11:34:03.937Z,20.87
2022-10-05T11:36:39.281Z,21.08
2022-10-05T11:39:26.902Z,21.43
2022-10-05T11:42:12.333Z,21.46
2022-10-05T11:45:01.023Z,21.46
2022-10-05T11:47:37.576Z,21.35
2022-10-05T11:50:22.795Z,21.51
2022-10-05T11:53:04.498Z,21.59
2022-10-05T11:55:33.676Z,21.44
2022-10-05T11:58:15.950Z,21.62
2022-10-05T12:00:46.358Z,21.60
2022-10-05T12:03:21.689Z,21.82
2022-10-05T12:06:16.247Z,21.74
2022-10-05T12:09:10.456Z,21.48
2022-10-05T12:11:37.052Z,21.89
2022-10-05T12:14:15.554Z,21.97
2022-10-05T12:17:01.256Z,21.68
2022-10-05T12:19:31.704Z,21.82
2022-10-05T12:22:21.524Z,21.90
2022-10-05T12:25:01.860Z,21.92
2022-10-05T12:27:35.091Z,21.69
2022-10-05T12:30:11.022Z,21.94
2022-10-05T12:32:50.054Z,21.97
2022-10-05T12:35:47.289Z,21.73
2022-10-05T12:38:28.547Z,22.01
2022-10-05T12:41:05.983Z,22.13
2022-10-05T12:43:44.943Z,22.09
2022-10-05T12:46:17.971Z,22.20
2022-10-05T12:48:52.570Z,22.36
2022-10-05T12:51:34.061Z,22.12
2022-10-05T12:54:08.598Z,22.34
2022-10-05T12:56:55.910Z,22.22
2022-10-05T12:59:25.464Z,22.34
2022-10-05T13:01:54.724Z,22.18
2022-10-05T13:04:40.271Z,21.91
2022-10-05T13:07:38.855Z,22.37
2022-10-05T13:10:17.444Z,22.46
2022-10-05T13:13:02.413Z,22.59
2022-10-05T13:15:32.660Z,22.82
2022-10-05T13:18:12.936Z,23.02
2022-10-05T13:20:46.440Z,22.82
2022-10-05T13:23:24.818Z,22.72
2022-10-05T13:25:58.942Z,22.68
2022-10-05T13:28:35.603Z,22.79
2022-10-05T13:31:13.479Z,22.74
2022-10-05T13:34:22.982Z,22.89
2022-10-05T13:37:07.937Z,22.85
2022-10-05T13:39:49.022Z,22.73
2022-10-05T13:42:21.100Z,22.97
2022-10-05T13:44:55.098Z,22.71
2022-10-05T13:47:46.281Z,22.67
2022-10-05T13:50:33.459Z,22.96
2022-10-05T13:53:02.998Z,23.03
2022-10-05T13:55:40.758Z,23.01
2022-10-05T13:58:19.433Z,23.06
2022-10-05T14:01:01.430Z,22.76
2022-10-05T14:03:32.638Z,22.79
2022-10-05T14:06:01.484Z,22.97
2022-10-05T14:08:33.680Z,23.08
2022-10-05T14:11:20.659Z,23.25
2022-10-05T14:13:48.208Z,23.27
2022-10-05T14:16:25.361Z,23.22
2022-10-05T14:18:54.698Z,23.31
2022-10-05T14:21:49.930Z,23.18
2022-10-05T14:24:45.671Z,23.03
2022-10-05T14:27:52.399Z,23.30
2022-10-05T14:30:23.836Z,23.24
2022-10-05T14:33:08.861Z,23.39
2022-10-05T14:35:49.350Z,23.26
2022-10-05T14:38:20.088Z,23.23
2022-10-05T14:41:22.615Z,23.18
2022-10-05T14:44:09.552Z,23.11
2022-10-05T14:46:37.373Z,23.22
2022-10-05T14:49:27.100Z,23.07
2022-10-05T14:51:55.237Z,23.27
2022-10-05T14:54:33.639Z,23.05
2022-10-05T14:57:10.204Z,23.25
2022-10-05T15:00:04.132Z,23.11
2022-10-05T15:02:45.298Z,23.40
2022-10-05T15:05:18.585Z,23.30
2022-10-05T15:07:49.422Z,23.44
2022-10-05T15:10:41.716Z,23.67
2022-10-05T15:13:17.166Z,23.42
2022-10-05T15:15:54.672Z,23.26
2022-10-05T15:18:34.746Z,23.37
2022-10-05T15:21:26.524Z,23.31
2022-10-05T15:24:16.672Z,23.59
2022-10-05T15:26:53.760Z,23.66
2022-10-05T15:29:27.321Z,23.71
2022-10-05T15:31:58.159Z,23.59
2022-10-05T15:34:45.074Z,23.61
2022-10-05T15:37:23.396Z,23.30
2022-10-05T15:39:59.676Z,23.49
2022-10-05T15:42:36.528Z,23.40
2022-10-05T15:45:24.193Z,23.44
2022-10-05T15:48:03.083Z,23.48
2022-10-05T15:50:35.193Z,23.53
2022-10-05T15:53:14.391Z,23.33
2022-10-05T15:56:19.370Z,23.56
2022-10-05T15:59:07.126Z,23.55
2022-10-05T16:01:33.788Z,23.51
2022-10-05T16:04:12.541Z,23.52
2022-10-05T16:07:01.002Z,23.66
2022-10-05T16:09:46.241Z,23.63
2022-10-05T16:12:34.416Z,23.62
2022-10-05T16:15:26.599Z,23.57
2022-10-05T16:17:59.399Z,23.53
2022-10-05T16:20:50.622Z,23.49
2022-10-05T16:23:32.410Z,23.16
2022-10-05T16:26:38.598Z,23.19
2022-10-05T16:29:24.019Z,23.06
2022-10-05T16:32:06.005Z,23.05
2022-10-05T16:34:51.338Z,23.19
2022-10-05T16:37:59.378Z,23.02
2022-10-05T16:40:46.967Z,23.02
2022-10-05T16:43:27.980Z,22.91
2022-10-05T16:46:10.378Z,22.78
2022-10-05T16:49:11.172Z,22.77
2022-10-05T16:51:59.243Z,22.70
2022-10-05T16:54:48.073Z,22.34
2022-10-05T16:57:20.523Z,22.08
2022-10-05T17:00:13.398Z,22.03
2022-10-05T17:02:51.947Z,21.88
2022-10-05T17:05:55.871Z,21.77
2022-10-05T17:08:45.639Z,21.69
2022-10-05T17:11:20.780Z,21.64
2022-10-05T17:14:02.687Z,21.82
2022-10-05T17:16:44.877Z,21.64
2022-10-05T17:19:34.294Z,21.47
2022-10-05T17:22:08.834Z,21.45
2022-10-05T17:24:35.605Z,21.25
2022-10-05T17:27:19.390Z,21.13
2022-10-05T17:29:53.696Z,21.06
2022-10-05T17:32:20.143Z,21.05
2022-10-05T17:35:15.940Z,20.98
2022-10-05T17:38:17.241Z,21.08
2022-10-05T17:41:06.513Z,21.04
2022-10-05T17:43:33.802Z,21.01
2022-10-05T17:46:02.265Z,20.98
2022-10-05T17:48:49.433Z,20.75
2022-10-05T17:51:43.797Z,20.76
2022-10-05T17:54:44.032Z,20.78
2022-10-05T17:57:10.459Z,20.81
2022-10-05T17:59:44.727Z,20.79
2022-10-05T18:02:20.933Z,20.68
2022-10-05T18:04:51.785Z,20.47
2022-10-05T18:07:21.888Z,20.48
2022-10-05T18:10:17.107Z,20.28
2022-10-05T18:12:59.010Z,20.34
2022-10-05T18:15:25.629Z,20.31
2022-10-05T18:17:54.774Z,20.09
2022-10-05T18:20:24.318Z,20.37
2022-10-05T18:23:14.569Z,19.88
2022-10-05T18:26:02.167Z,19.66
2022-10-05T18:28:48.751Z,19.45
2022-10-05T18:32:01.152Z,19.35
2022-10-05T18:34:36.223Z,19.30
2022-10-05T18:37:25.627Z,19.29
2022-10-05T18:40:19.303Z,19.31
2022-10-05T18:43:02.064Z,19.14
2022-10-05T18:46:02.768Z,19.20
2022-10-05T18:48:35.570Z,18.88
2022-10-05T18:51:19.651Z,18.90
2022-10-05T18:54:09.880Z,18.86
2022-10-05T18:56:52.972Z,18.84
2022-10-05T18:59:19.350Z,18.86
2022-10-05T19:01:58.249Z,18.67
2022-10-05T19:04:46.008Z,18.50
2022-10-05T19:07:15.705Z,18.50
2022-10-05T19:09:55.486Z,18.46
2022-10-05T19:12:29.753Z,18.57
2022-10-05T19:15:16.717Z,18.49
2022-10-05T19:17:56.621Z,18.54
2022-10-05T19:20:25.992Z,18.37
2022-10-05T19:23:13.481Z,18.35
2022-10-05T19:25:47.514Z,18.41
2022-10-05T19:28:18.474Z,18.46
2022-10-05T19:30:57.219Z,18.19
2022-10-05T19:33:36.224Z,18.30
2022-10-05T19:36:29.797Z,18.21
2022-10-05T19:39:08.304Z,18.37
2022-10-05T19:42:22.797Z,18.21
2022-10-05T19:45:12.917Z,18.02
2022-10-05T19:48:03.538Z,18.11
2022-10-05T19:50:33.729Z,18.15
2022-10-05T19:53:22.604Z,17.94
2022-10-05T19:55:49.293Z,17.77
2022-10-05T19:58:18.804Z,17.78
2022-10-05T20:00:55.532Z,17.93
2022-10-05T20:03:29.205Z,17.97
2022-10-05T20:06:01.206Z,17.89
2022-10-05T20:08:39.397Z,18.06
2022-10-05T20:11:14.345Z,17.54
2022-10-05T20:13:46.357Z,17.60
2022-10-05T20:16:31.669Z,17.71
2022-10-05T20:19:16.625Z,17.62
2022-10-05T20:21:49.672Z,17.34
2022-10-05T20:24:48.506Z,17.35
2022-10-05T20:27:34.033Z,17.48
2022-10-05T20:30:02.100Z,17.32
2022-10-05T20:32:30.692Z,17.26
2022-10-05T20:34:57.498Z,17.34
2022-10-05T20:37:24.640Z,17.42
2022-10-05T20:39:51.479Z,17.59
2022-10-05T20:42:19.476Z,17.46
2022-10-05T20:44:47.067Z,17.36
2022-10-05T20:47:13.884Z,17.34
2022-10-05T20:49:44.715Z,17.44
2022-10-05T20:52:15.056Z,17.33
2022-10-05T20:54:42.289Z,17.23
2022-10-05T20:57:12.737Z,17.46
2022-10-05T20:59:39.544Z,17.55
2022-10-05T21:02:09.888Z,17.37
2022-10-05T21:04:40.951Z,17.30
2022-10-05T21:07:08.565Z,17.20
2022-10-05T21:09:46.548Z,17.00
2022-10-05T21:12:14.016Z,17.03
2022-10-05T21:14:40.845Z,17.00
2022-10-05T21:17:07.533Z,17.13
2022-10-05T21:19:38.582Z,17.02
2022-10-05T21:22:07.501Z,17.14
2022-10-05T21:24:39.174Z,17.10
2022-10-05T21:27:06.616Z,16.92
2022-10-05T21:29:34.404Z,16.76
2022-10-05T21:32:01.478Z,16.66
2022-10-05T21:34:28.842Z,16.80
2022-10-05T21:36:55.405Z,16.79
2022-10-05T21:39:22.024Z,16.68
2022-10-05T21:41:49.779Z,16.44
2022-10-05T21:44:16.794Z,16.41
2022-10-05T21:46:43.789Z,16.23
2022-10-05T21:49:10.420Z,16.46
2022-10-05T21:51:38.184Z,16.26
2022-10-05T21:54:32.137Z,16.18
2022-10-05T21:57:00.132Z,16.34
2022-10-05T21:59:29.313Z,16.06
2022-10-05T22:01:55.888Z,16.02
2022-10-05T22:04:22.679Z,16.09
2022-10-05T22:06:49.268Z,16.30
2022-10-05T22:09:15.849Z,16.33
2022-10-05T22:11:42.472Z,16.42
2022-10-05T22:14:09.281Z,16.49
2022-10-05T22:16:38.631Z,16.59
2022-10-05T22:19:07.313Z,16.70
2022-10-05T22:21:38.210Z,16.60
2022-10-05T22:24:05.135Z,16.45
2022-10-05T22:26:31.769Z,16.59
2022-10-05T22:28:58.716Z,16.34
2022-10-05T22:31:25.386Z,16.38
2022-10-05T22:33:52.048Z,16.39
2022-10-05T22:36:19.337Z,16.43
2022-10-05T22:38:47.776Z,16.56
2022-10-05T22:41:16.505Z,16.19
2022-10-05T22:43:43.080Z,16.07
2022-10-05T22:46:12.372Z,16.18
2022-10-05T22:48:39.309Z,16.35
2022-10-05T22:51:06.847Z,16.26
2022-10-05T22:53:34.241Z,16.14
2022-10-05T22:56:08.213Z,15.83
2022-10-05T22:58:35.730Z,15.89
2022-10-05T23:01:04.828Z,15.67
2022-10-05T23:03:31.973Z,15.75
2022-10-05T23:06:04.782Z,15.88
2022-10-05T23:08:36.004Z,15.76
2022-10-05T23:11:04.446Z,15.95
2022-10-05T23:13:33.474Z,16.12
2022-10-05T23:16:11.249Z,16.22
2022-10-05T23:18:38.364Z,15.99
2022-10-05T23:21:07.461Z,15.81
2022-10-05T23:23:38.571Z,15.86
2022-10-05T23:26:07.637Z,15.87
2022-10-05T23:28:34.661Z,15.61
2022-10-05T23:31:03.778Z,15.38
2022-10-05T23:33:30.913Z,15.35
2022-10-05T23:36:02.032Z,15.42
2022-10-05T23:38:29.978Z,15.45
2022-10-05T23:40:59.060Z,15.51
2022-10-05T23:43:26.799Z,15.43
2022-10-05T23:45:53.479Z,15.45
2022-10-05T23:48:20.203Z,15.40
2022-10-05T23:50:47.385Z,15.44
2022-10-05T23:53:14.829Z,15.54
2022-10-05T23:55:41.493Z,15.74
2022-10-05T23:58:08.545Z,15.82
